sensor_id;sensor_type;location;lat;lon;timestamp;temperature;humidity
54960;DHT22;40860;51.710;8.736;2024-01-06T00:02:53;6.50;99.90
54960;DHT22;40860;51.710;8.736;2024-01-06T00:06:56;6.50;99.90
54960;DHT22;40860;51.710;8.736;2024-01-06T00:11:01;6.50;99.90
54960;DHT22;40860;51.710;8.736;2024-01-06T00:15:06;6.40;99.90
54960;DHT22;40860;51.710;8.736;2024-01-06T00:19:10;6.40;99.90
54960;DHT22;40860;51.710;8.736;2024-01-06T00:23:13;6.40;99.90
54960;DHT22;40860;51.710;8.736;2024-01-06T00:27:17;6.40;99.90
54960;DHT22;40860;51.710;8.736;2024-01-06T00:31:20;6.40;99.90
54960;DHT22;40860;51.710;8.736;2024-01-06T00:35:23;6.40;99.90
54960;DHT22;40860;51.710;8.736;2024-01-06T00:39:26;6.40;99.90
54960;DHT22;40860;51.710;8.736;2024-01-06T00:43:30;6.40;99.90
54960;DHT22;40860;51.710;8.736;2024-01-06T00:47:33;6.40;99.90
54960;DHT22;40860;51.710;8.736;2024-01-06T00:51:36;6.40;99.90
54960;DHT22;40860;51.710;8.736;2024-01-06T00:55:41;6.40;99.90
54960;DHT22;40860;51.710;8.736;2024-01-06T00:59:45;6.30;99.90
54960;DHT22;40860;51.710;8.736;2024-01-06T01:03:47;6.30;99.90
54960;DHT22;40860;51.710;8.736;2024-01-06T01:07:50;6.30;99.90
54960;DHT22;40860;51.710;8.736;2024-01-06T01:11:53;6.30;99.90
54960;DHT22;40860;51.710;8.736;2024-01-06T01:15:57;6.30;99.90
54960;DHT22;40860;51.710;8.736;2024-01-06T01:20:00;6.30;99.90
54960;DHT22;40860;51.710;8.736;2024-01-06T01:24:04;6.30;99.90
54960;DHT22;40860;51.710;8.736;2024-01-06T01:28:07;6.20;99.90
54960;DHT22;40860;51.710;8.736;2024-01-06T01:32:11;6.20;99.90
54960;DHT22;40860;51.710;8.736;2024-01-06T01:36:14;6.30;99.90
54960;DHT22;40860;51.710;8.736;2024-01-06T01:40:19;6.30;99.90
54960;DHT22;40860;51.710;8.736;2024-01-06T01:44:22;6.30;99.90
54960;DHT22;40860;51.710;8.736;2024-01-06T01:48:26;6.20;99.90
54960;DHT22;40860;51.710;8.736;2024-01-06T01:52:30;6.20;99.90
54960;DHT22;40860;51.710;8.736;2024-01-06T01:56:33;6.30;99.90
54960;DHT22;40860;51.710;8.736;2024-01-06T02:00:39;6.30;99.90
54960;DHT22;40860;51.710;8.736;2024-01-06T02:04:45;6.30;99.90
54960;DHT22;40860;51.710;8.736;2024-01-06T02:08:48;6.30;99.90
54960;DHT22;40860;51.710;8.736;2024-01-06T02:12:51;6.30;99.90
54960;DHT22;40860;51.710;8.736;2024-01-06T02:16:54;6.20;99.90
54960;DHT22;40860;51.710;8.736;2024-01-06T02:20:59;6.20;99.90
54960;DHT22;40860;51.710;8.736;2024-01-06T02:25:06;6.20;99.90
54960;DHT22;40860;51.710;8.736;2024-01-06T02:29:14;6.20;99.90
54960;DHT22;40860;51.710;8.736;2024-01-06T02:33:17;6.10;99.90
54960;DHT22;40860;51.710;8.736;2024-01-06T02:37:21;6.10;99.90
54960;DHT22;40860;51.710;8.736;2024-01-06T02:41:25;6.10;99.90
54960;DHT22;40860;51.710;8.736;2024-01-06T02:45:28;6.10;99.90
54960;DHT22;40860;51.710;8.736;2024-01-06T02:49:31;6.00;99.90
54960;DHT22;40860;51.710;8.736;2024-01-06T02:53:34;6.00;99.90
54960;DHT22;40860;51.710;8.736;2024-01-06T02:57:39;6.00;99.90
54960;DHT22;40860;51.710;8.736;2024-01-06T03:01:42;5.90;99.90
54960;DHT22;40860;51.710;8.736;2024-01-06T03:05:45;5.90;99.90
54960;DHT22;40860;51.710;8.736;2024-01-06T03:09:51;5.90;99.90
54960;DHT22;40860;51.710;8.736;2024-01-06T03:13:55;5.90;99.90
54960;DHT22;40860;51.710;8.736;2024-01-06T03:18:05;5.90;99.90
54960;DHT22;40860;51.710;8.736;2024-01-06T03:22:08;5.80;99.90
54960;DHT22;40860;51.710;8.736;2024-01-06T03:26:11;5.80;99.90
54960;DHT22;40860;51.710;8.736;2024-01-06T03:30:15;5.80;99.90
54960;DHT22;40860;51.710;8.736;2024-01-06T03:34:18;5.70;99.90
54960;DHT22;40860;51.710;8.736;2024-01-06T03:38:21;5.80;99.90
54960;DHT22;40860;51.710;8.736;2024-01-06T03:42:24;5.80;99.90
54960;DHT22;40860;51.710;8.736;2024-01-06T03:46:28;5.80;99.90
54960;DHT22;40860;51.710;8.736;2024-01-06T03:50:31;5.80;99.90
54960;DHT22;40860;51.710;8.736;2024-01-06T03:54:34;5.80;99.90
54960;DHT22;40860;51.710;8.736;2024-01-06T03:58:36;5.80;99.90
54960;DHT22;40860;51.710;8.736;2024-01-06T04:02:41;5.80;99.90
54960;DHT22;40860;51.710;8.736;2024-01-06T04:06:44;5.80;99.90
54960;DHT22;40860;51.710;8.736;2024-01-06T04:10:47;5.90;99.90
54960;DHT22;40860;51.710;8.736;2024-01-06T04:14:49;5.90;99.90
54960;DHT22;40860;51.710;8.736;2024-01-06T04:18:54;5.90;99.90
54960;DHT22;40860;51.710;8.736;2024-01-06T04:22:57;5.90;99.90
54960;DHT22;40860;51.710;8.736;2024-01-06T04:27:00;5.90;99.90
54960;DHT22;40860;51.710;8.736;2024-01-06T04:31:03;5.90;99.90
54960;DHT22;40860;51.710;8.736;2024-01-06T04:35:10;5.90;99.90
54960;DHT22;40860;51.710;8.736;2024-01-06T04:39:13;5.90;99.90
54960;DHT22;40860;51.710;8.736;2024-01-06T04:43:16;5.90;99.90
54960;DHT22;40860;51.710;8.736;2024-01-06T04:47:19;5.90;99.90
54960;DHT22;40860;51.710;8.736;2024-01-06T04:51:24;5.90;99.90
54960;DHT22;40860;51.710;8.736;2024-01-06T04:55:27;5.90;99.90
54960;DHT22;40860;51.710;8.736;2024-01-06T04:59:30;5.90;99.90
54960;DHT22;40860;51.710;8.736;2024-01-06T05:03:33;5.80;99.90
54960;DHT22;40860;51.710;8.736;2024-01-06T05:07:37;5.90;99.90
54960;DHT22;40860;51.710;8.736;2024-01-06T05:11:40;5.90;99.90
54960;DHT22;40860;51.710;8.736;2024-01-06T05:15:43;5.90;99.90
54960;DHT22;40860;51.710;8.736;2024-01-06T05:19:46;5.90;99.90
54960;DHT22;40860;51.710;8.736;2024-01-06T05:23:50;5.90;99.90
54960;DHT22;40860;51.710;8.736;2024-01-06T05:27:53;5.90;99.90
54960;DHT22;40860;51.710;8.736;2024-01-06T05:31:56;5.90;99.90
54960;DHT22;40860;51.710;8.736;2024-01-06T05:35:59;5.90;99.90
54960;DHT22;40860;51.710;8.736;2024-01-06T05:40:06;5.90;99.90
54960;DHT22;40860;51.710;8.736;2024-01-06T05:44:09;6.00;99.90
54960;DHT22;40860;51.710;8.736;2024-01-06T05:48:12;5.90;99.90
54960;DHT22;40860;51.710;8.736;2024-01-06T05:52:15;5.90;99.90
54960;DHT22;40860;51.710;8.736;2024-01-06T05:56:23;5.90;99.90
54960;DHT22;40860;51.710;8.736;2024-01-06T06:00:27;5.90;99.90
54960;DHT22;40860;51.710;8.736;2024-01-06T06:04:33;5.90;99.90
54960;DHT22;40860;51.710;8.736;2024-01-06T06:08:36;5.90;99.90
54960;DHT22;40860;51.710;8.736;2024-01-06T06:12:40;5.90;99.90
54960;DHT22;40860;51.710;8.736;2024-01-06T06:16:43;5.90;99.90
54960;DHT22;40860;51.710;8.736;2024-01-06T06:20:45;5.90;99.90
54960;DHT22;40860;51.710;8.736;2024-01-06T06:24:48;6.00;99.90
54960;DHT22;40860;51.710;8.736;2024-01-06T06:28:53;6.00;99.90
54960;DHT22;40860;51.710;8.736;2024-01-06T06:32:55;5.90;99.90
54960;DHT22;40860;51.710;8.736;2024-01-06T06:36:58;5.90;99.90
54960;DHT22;40860;51.710;8.736;2024-01-06T06:41:01;5.90;99.90
54960;DHT22;40860;51.710;8.736;2024-01-06T06:45:06;5.90;99.90
54960;DHT22;40860;51.710;8.736;2024-01-06T06:49:09;5.90;99.90
54960;DHT22;40860;51.710;8.736;2024-01-06T06:53:12;5.90;99.90
54960;DHT22;40860;51.710;8.736;2024-01-06T06:57:15;5.90;99.90
54960;DHT22;40860;51.710;8.736;2024-01-06T07:01:20;5.80;99.90
54960;DHT22;40860;51.710;8.736;2024-01-06T07:05:23;5.80;99.90
54960;DHT22;40860;51.710;8.736;2024-01-06T07:09:25;5.70;99.90
54960;DHT22;40860;51.710;8.736;2024-01-06T07:13:28;5.70;99.90
54960;DHT22;40860;51.710;8.736;2024-01-06T07:17:32;5.70;99.90
54960;DHT22;40860;51.710;8.736;2024-01-06T07:21:35;5.70;99.90
54960;DHT22;40860;51.710;8.736;2024-01-06T07:25:39;5.70;99.90
54960;DHT22;40860;51.710;8.736;2024-01-06T07:29:42;5.70;99.90
54960;DHT22;40860;51.710;8.736;2024-01-06T07:33:46;5.70;99.90
54960;DHT22;40860;51.710;8.736;2024-01-06T07:37:49;5.60;99.90
54960;DHT22;40860;51.710;8.736;2024-01-06T07:41:52;5.50;99.90
54960;DHT22;40860;51.710;8.736;2024-01-06T07:45:54;5.50;99.90
54960;DHT22;40860;51.710;8.736;2024-01-06T07:49:59;5.50;99.90
54960;DHT22;40860;51.710;8.736;2024-01-06T07:54:02;5.40;99.90
54960;DHT22;40860;51.710;8.736;2024-01-06T07:58:07;5.50;99.90
54960;DHT22;40860;51.710;8.736;2024-01-06T08:02:09;5.50;99.90
54960;DHT22;40860;51.710;8.736;2024-01-06T08:06:14;5.40;99.90
54960;DHT22;40860;51.710;8.736;2024-01-06T08:10:18;5.40;99.90
54960;DHT22;40860;51.710;8.736;2024-01-06T08:14:22;5.50;99.90
54960;DHT22;40860;51.710;8.736;2024-01-06T08:18:25;5.50;99.90
54960;DHT22;40860;51.710;8.736;2024-01-06T08:22:30;5.50;99.90
54960;DHT22;40860;51.710;8.736;2024-01-06T08:26:33;5.60;99.90
54960;DHT22;40860;51.710;8.736;2024-01-06T08:30:36;5.60;99.90
54960;DHT22;40860;51.710;8.736;2024-01-06T08:34:39;5.60;99.90
54960;DHT22;40860;51.710;8.736;2024-01-06T08:38:44;5.60;99.90
54960;DHT22;40860;51.710;8.736;2024-01-06T08:42:46;5.60;99.90
54960;DHT22;40860;51.710;8.736;2024-01-06T08:46:49;5.70;99.90
54960;DHT22;40860;51.710;8.736;2024-01-06T08:50:53;5.70;99.90
54960;DHT22;40860;51.710;8.736;2024-01-06T08:54:57;5.70;99.90
54960;DHT22;40860;51.710;8.736;2024-01-06T08:59:00;5.70;99.90
54960;DHT22;40860;51.710;8.736;2024-01-06T09:03:03;5.70;99.90
54960;DHT22;40860;51.710;8.736;2024-01-06T09:07:06;5.60;99.90
54960;DHT22;40860;51.710;8.736;2024-01-06T09:11:11;5.50;99.90
54960;DHT22;40860;51.710;8.736;2024-01-06T09:15:14;5.40;99.90
54960;DHT22;40860;51.710;8.736;2024-01-06T09:19:17;5.30;99.90
54960;DHT22;40860;51.710;8.736;2024-01-06T09:23:21;5.30;99.90
54960;DHT22;40860;51.710;8.736;2024-01-06T09:27:27;5.20;99.90
54960;DHT22;40860;51.710;8.736;2024-01-06T09:31:30;5.20;99.90
54960;DHT22;40860;51.710;8.736;2024-01-06T09:35:34;5.20;99.90
54960;DHT22;40860;51.710;8.736;2024-01-06T09:39:37;5.20;99.90
54960;DHT22;40860;51.710;8.736;2024-01-06T09:43:42;5.20;99.90
54960;DHT22;40860;51.710;8.736;2024-01-06T09:47:49;5.10;99.90
54960;DHT22;40860;51.710;8.736;2024-01-06T09:51:53;5.10;99.90
54960;DHT22;40860;51.710;8.736;2024-01-06T09:55:58;5.00;99.90
54960;DHT22;40860;51.710;8.736;2024-01-06T10:00:03;5.00;99.90
54960;DHT22;40860;51.710;8.736;2024-01-06T10:04:12;5.00;99.90
54960;DHT22;40860;51.710;8.736;2024-01-06T10:08:25;5.00;99.90
54960;DHT22;40860;51.710;8.736;2024-01-06T10:12:28;4.90;99.90
54960;DHT22;40860;51.710;8.736;2024-01-06T10:16:35;4.90;99.90
54960;DHT22;40860;51.710;8.736;2024-01-06T10:20:41;4.90;99.90
54960;DHT22;40860;51.710;8.736;2024-01-06T10:24:44;4.80;99.90
54960;DHT22;40860;51.710;8.736;2024-01-06T10:28:48;4.80;99.90
54960;DHT22;40860;51.710;8.736;2024-01-06T10:32:53;4.80;99.90
54960;DHT22;40860;51.710;8.736;2024-01-06T10:36:56;4.70;99.90
54960;DHT22;40860;51.710;8.736;2024-01-06T10:41:00;4.80;99.90
54960;DHT22;40860;51.710;8.736;2024-01-06T10:45:10;4.80;99.90
54960;DHT22;40860;51.710;8.736;2024-01-06T10:49:14;4.80;99.90
54960;DHT22;40860;51.710;8.736;2024-01-06T10:53:22;4.90;99.90
54960;DHT22;40860;51.710;8.736;2024-01-06T10:57:27;4.90;99.90
54960;DHT22;40860;51.710;8.736;2024-01-06T11:01:33;4.90;99.90
54960;DHT22;40860;51.710;8.736;2024-01-06T11:05:39;4.90;99.90
54960;DHT22;40860;51.710;8.736;2024-01-06T11:09:47;4.90;99.90
54960;DHT22;40860;51.710;8.736;2024-01-06T11:13:53;4.90;99.90
54960;DHT22;40860;51.710;8.736;2024-01-06T11:17:56;4.90;99.90
54960;DHT22;40860;51.710;8.736;2024-01-06T11:22:26;4.90;99.90
54960;DHT22;40860;51.710;8.736;2024-01-06T11:26:30;4.90;99.90
54960;DHT22;40860;51.710;8.736;2024-01-06T11:30:33;4.80;99.90
54960;DHT22;40860;51.710;8.736;2024-01-06T11:34:40;4.80;99.90
54960;DHT22;40860;51.710;8.736;2024-01-06T11:38:46;4.90;99.90
54960;DHT22;40860;51.710;8.736;2024-01-06T11:43:03;4.90;99.90
54960;DHT22;40860;51.710;8.736;2024-01-06T11:47:08;4.80;99.90
54960;DHT22;40860;51.710;8.736;2024-01-06T11:51:13;4.80;99.90
54960;DHT22;40860;51.710;8.736;2024-01-06T11:55:18;4.80;99.90
54960;DHT22;40860;51.710;8.736;2024-01-06T11:59:21;4.70;99.90
54960;DHT22;40860;51.710;8.736;2024-01-06T12:03:24;4.60;99.90
54960;DHT22;40860;51.710;8.736;2024-01-06T12:07:28;4.50;99.90
54960;DHT22;40860;51.710;8.736;2024-01-06T12:11:37;4.50;99.90
54960;DHT22;40860;51.710;8.736;2024-01-06T12:15:41;4.40;99.90
54960;DHT22;40860;51.710;8.736;2024-01-06T12:19:44;4.40;99.90
54960;DHT22;40860;51.710;8.736;2024-01-06T12:23:47;4.40;99.90
54960;DHT22;40860;51.710;8.736;2024-01-06T12:27:52;4.40;99.90
54960;DHT22;40860;51.710;8.736;2024-01-06T12:31:56;4.40;99.90
54960;DHT22;40860;51.710;8.736;2024-01-06T12:35:59;4.30;99.90
54960;DHT22;40860;51.710;8.736;2024-01-06T12:40:15;4.30;99.90
54960;DHT22;40860;51.710;8.736;2024-01-06T12:44:20;4.40;99.90
54960;DHT22;40860;51.710;8.736;2024-01-06T12:48:24;4.40;99.90
54960;DHT22;40860;51.710;8.736;2024-01-06T12:52:27;4.40;99.90
54960;DHT22;40860;51.710;8.736;2024-01-06T12:56:30;4.40;99.90
54960;DHT22;40860;51.710;8.736;2024-01-06T13:00:34;4.30;99.90
54960;DHT22;40860;51.710;8.736;2024-01-06T13:04:38;4.30;99.90
54960;DHT22;40860;51.710;8.736;2024-01-06T13:08:41;4.30;99.90
54960;DHT22;40860;51.710;8.736;2024-01-06T13:12:44;4.30;99.90
54960;DHT22;40860;51.710;8.736;2024-01-06T13:16:49;4.20;99.90
54960;DHT22;40860;51.710;8.736;2024-01-06T13:20:52;4.20;99.90
54960;DHT22;40860;51.710;8.736;2024-01-06T13:24:56;4.20;99.90
54960;DHT22;40860;51.710;8.736;2024-01-06T13:28:59;4.20;99.90
54960;DHT22;40860;51.710;8.736;2024-01-06T13:33:04;4.30;99.90
54960;DHT22;40860;51.710;8.736;2024-01-06T13:37:07;4.30;99.90
54960;DHT22;40860;51.710;8.736;2024-01-06T13:41:10;4.20;99.90
54960;DHT22;40860;51.710;8.736;2024-01-06T13:45:13;4.20;99.90
54960;DHT22;40860;51.710;8.736;2024-01-06T13:49:18;4.20;99.90
54960;DHT22;40860;51.710;8.736;2024-01-06T13:53:22;4.20;99.90
54960;DHT22;40860;51.710;8.736;2024-01-06T13:57:24;4.20;99.90
54960;DHT22;40860;51.710;8.736;2024-01-06T14:01:27;4.30;99.90
54960;DHT22;40860;51.710;8.736;2024-01-06T14:05:33;4.20;99.90
54960;DHT22;40860;51.710;8.736;2024-01-06T14:09:36;4.30;99.90
54960;DHT22;40860;51.710;8.736;2024-01-06T14:13:39;4.20;99.90
54960;DHT22;40860;51.710;8.736;2024-01-06T14:17:42;4.20;99.90
54960;DHT22;40860;51.710;8.736;2024-01-06T14:21:52;4.20;99.90
54960;DHT22;40860;51.710;8.736;2024-01-06T14:25:55;4.20;99.90
54960;DHT22;40860;51.710;8.736;2024-01-06T14:29:58;4.20;99.90
54960;DHT22;40860;51.710;8.736;2024-01-06T14:34:01;4.20;99.90
54960;DHT22;40860;51.710;8.736;2024-01-06T14:38:06;4.20;99.90
54960;DHT22;40860;51.710;8.736;2024-01-06T14:42:09;4.10;99.90
54960;DHT22;40860;51.710;8.736;2024-01-06T14:46:11;4.10;99.90
54960;DHT22;40860;51.710;8.736;2024-01-06T14:50:14;4.00;99.90
54960;DHT22;40860;51.710;8.736;2024-01-06T14:54:19;4.00;99.90
54960;DHT22;40860;51.710;8.736;2024-01-06T14:58:22;4.00;99.90
54960;DHT22;40860;51.710;8.736;2024-01-06T15:02:25;4.00;99.90
54960;DHT22;40860;51.710;8.736;2024-01-06T15:06:28;3.90;99.90
54960;DHT22;40860;51.710;8.736;2024-01-06T15:10:32;3.90;99.90
54960;DHT22;40860;51.710;8.736;2024-01-06T15:14:36;3.90;99.90
54960;DHT22;40860;51.710;8.736;2024-01-06T15:18:39;3.90;99.90
54960;DHT22;40860;51.710;8.736;2024-01-06T15:22:42;3.90;99.90
54960;DHT22;40860;51.710;8.736;2024-01-06T15:26:46;3.90;99.90
54960;DHT22;40860;51.710;8.736;2024-01-06T15:30:49;3.90;99.90
54960;DHT22;40860;51.710;8.736;2024-01-06T15:34:52;3.80;99.90
54960;DHT22;40860;51.710;8.736;2024-01-06T15:38:55;3.80;99.90
54960;DHT22;40860;51.710;8.736;2024-01-06T15:42:59;3.80;99.90
54960;DHT22;40860;51.710;8.736;2024-01-06T15:47:02;3.80;99.90
54960;DHT22;40860;51.710;8.736;2024-01-06T15:51:05;3.90;99.90
54960;DHT22;40860;51.710;8.736;2024-01-06T15:55:08;3.80;99.90
54960;DHT22;40860;51.710;8.736;2024-01-06T15:59:13;3.80;99.90
54960;DHT22;40860;51.710;8.736;2024-01-06T16:03:16;3.80;99.90
54960;DHT22;40860;51.710;8.736;2024-01-06T16:07:19;3.80;99.90
54960;DHT22;40860;51.710;8.736;2024-01-06T16:11:24;3.80;99.90
54960;DHT22;40860;51.710;8.736;2024-01-06T16:15:28;3.80;99.90
54960;DHT22;40860;51.710;8.736;2024-01-06T16:19:32;3.80;99.90
54960;DHT22;40860;51.710;8.736;2024-01-06T16:23:35;3.80;99.90
54960;DHT22;40860;51.710;8.736;2024-01-06T16:27:37;3.80;99.90
54960;DHT22;40860;51.710;8.736;2024-01-06T16:31:42;3.70;99.90
54960;DHT22;40860;51.710;8.736;2024-01-06T16:35:45;3.70;99.90
54960;DHT22;40860;51.710;8.736;2024-01-06T16:39:49;3.70;99.90
54960;DHT22;40860;51.710;8.736;2024-01-06T16:43:55;3.70;99.90
54960;DHT22;40860;51.710;8.736;2024-01-06T16:48:00;3.70;99.90
54960;DHT22;40860;51.710;8.736;2024-01-06T16:52:03;3.70;99.90
54960;DHT22;40860;51.710;8.736;2024-01-06T16:56:07;3.70;99.90
54960;DHT22;40860;51.710;8.736;2024-01-06T17:00:11;3.70;99.90
54960;DHT22;40860;51.710;8.736;2024-01-06T17:04:16;3.80;99.90
54960;DHT22;40860;51.710;8.736;2024-01-06T17:08:19;3.80;99.90
54960;DHT22;40860;51.710;8.736;2024-01-06T17:12:23;3.70;99.90
54960;DHT22;40860;51.710;8.736;2024-01-06T17:16:26;3.80;99.90
54960;DHT22;40860;51.710;8.736;2024-01-06T17:20:30;3.70;99.90
54960;DHT22;40860;51.710;8.736;2024-01-06T17:24:33;3.80;99.90
54960;DHT22;40860;51.710;8.736;2024-01-06T17:28:37;3.70;99.90
54960;DHT22;40860;51.710;8.736;2024-01-06T17:32:40;3.80;99.90
54960;DHT22;40860;51.710;8.736;2024-01-06T17:36:48;3.80;99.90
54960;DHT22;40860;51.710;8.736;2024-01-06T17:40:51;3.80;99.90
54960;DHT22;40860;51.710;8.736;2024-01-06T17:44:54;3.80;99.90
54960;DHT22;40860;51.710;8.736;2024-01-06T17:48:57;3.80;99.90
54960;DHT22;40860;51.710;8.736;2024-01-06T17:53:01;3.80;99.90
54960;DHT22;40860;51.710;8.736;2024-01-06T17:57:04;3.80;99.90
54960;DHT22;40860;51.710;8.736;2024-01-06T18:01:07;3.80;99.90
54960;DHT22;40860;51.710;8.736;2024-01-06T18:05:10;3.80;99.90
54960;DHT22;40860;51.710;8.736;2024-01-06T18:09:15;3.80;99.90
54960;DHT22;40860;51.710;8.736;2024-01-06T18:13:21;3.80;99.90
54960;DHT22;40860;51.710;8.736;2024-01-06T18:17:24;3.90;99.90
54960;DHT22;40860;51.710;8.736;2024-01-06T18:21:27;3.80;99.90
54960;DHT22;40860;51.710;8.736;2024-01-06T18:25:32;3.90;99.90
54960;DHT22;40860;51.710;8.736;2024-01-06T18:29:35;3.90;99.90
54960;DHT22;40860;51.710;8.736;2024-01-06T18:33:38;3.80;99.90
54960;DHT22;40860;51.710;8.736;2024-01-06T18:37:42;3.80;99.90
54960;DHT22;40860;51.710;8.736;2024-01-06T18:41:46;3.90;99.90
54960;DHT22;40860;51.710;8.736;2024-01-06T18:45:49;3.90;99.90
54960;DHT22;40860;51.710;8.736;2024-01-06T18:49:53;3.90;99.90
54960;DHT22;40860;51.710;8.736;2024-01-06T18:53:56;3.90;99.90
54960;DHT22;40860;51.710;8.736;2024-01-06T18:58:00;3.90;99.90
54960;DHT22;40860;51.710;8.736;2024-01-06T19:02:03;3.90;99.90
54960;DHT22;40860;51.710;8.736;2024-01-06T19:06:08;3.90;99.90
54960;DHT22;40860;51.710;8.736;2024-01-06T19:10:12;3.90;99.90
54960;DHT22;40860;51.710;8.736;2024-01-06T19:14:17;3.90;99.90
54960;DHT22;40860;51.710;8.736;2024-01-06T19:18:23;3.90;99.90
54960;DHT22;40860;51.710;8.736;2024-01-06T19:22:26;3.90;99.90
54960;DHT22;40860;51.710;8.736;2024-01-06T19:26:29;4.00;99.90
54960;DHT22;40860;51.710;8.736;2024-01-06T19:30:33;4.00;99.90
54960;DHT22;40860;51.710;8.736;2024-01-06T19:34:36;4.00;99.90
54960;DHT22;40860;51.710;8.736;2024-01-06T19:38:40;4.00;99.90
54960;DHT22;40860;51.710;8.736;2024-01-06T19:42:45;3.90;99.90
54960;DHT22;40860;51.710;8.736;2024-01-06T19:46:51;3.80;99.90
54960;DHT22;40860;51.710;8.736;2024-01-06T19:50:54;3.70;99.90
54960;DHT22;40860;51.710;8.736;2024-01-06T19:54:58;3.70;99.90
54960;DHT22;40860;51.710;8.736;2024-01-06T19:59:02;3.70;99.90
54960;DHT22;40860;51.710;8.736;2024-01-06T20:03:06;3.70;99.90
54960;DHT22;40860;51.710;8.736;2024-01-06T20:07:12;3.70;99.90
54960;DHT22;40860;51.710;8.736;2024-01-06T20:11:15;3.60;99.90
54960;DHT22;40860;51.710;8.736;2024-01-06T20:15:18;3.60;99.90
54960;DHT22;40860;51.710;8.736;2024-01-06T20:19:22;3.60;99.90
54960;DHT22;40860;51.710;8.736;2024-01-06T20:23:26;3.50;99.90
54960;DHT22;40860;51.710;8.736;2024-01-06T20:27:28;3.50;99.90
54960;DHT22;40860;51.710;8.736;2024-01-06T20:31:31;3.50;99.90
54960;DHT22;40860;51.710;8.736;2024-01-06T20:35:36;3.50;99.90
54960;DHT22;40860;51.710;8.736;2024-01-06T20:39:39;3.50;99.90
54960;DHT22;40860;51.710;8.736;2024-01-06T20:43:42;3.40;99.90
54960;DHT22;40860;51.710;8.736;2024-01-06T20:47:45;3.40;99.90
54960;DHT22;40860;51.710;8.736;2024-01-06T20:51:51;3.30;99.90
54960;DHT22;40860;51.710;8.736;2024-01-06T20:56:18;3.30;99.90
54960;DHT22;40860;51.710;8.736;2024-01-06T21:00:21;3.30;99.90
54960;DHT22;40860;51.710;8.736;2024-01-06T21:04:25;3.30;99.90
54960;DHT22;40860;51.710;8.736;2024-01-06T21:08:29;3.40;99.90
54960;DHT22;40860;51.710;8.736;2024-01-06T21:12:34;3.30;99.90
54960;DHT22;40860;51.710;8.736;2024-01-06T21:16:38;3.30;99.90
54960;DHT22;40860;51.710;8.736;2024-01-06T21:20:41;3.30;99.90
54960;DHT22;40860;51.710;8.736;2024-01-06T21:24:46;3.30;99.90
54960;DHT22;40860;51.710;8.736;2024-01-06T21:28:52;3.30;99.90
54960;DHT22;40860;51.710;8.736;2024-01-06T21:32:55;3.30;99.90
54960;DHT22;40860;51.710;8.736;2024-01-06T21:37:03;3.30;99.90
54960;DHT22;40860;51.710;8.736;2024-01-06T21:41:07;3.30;99.90
54960;DHT22;40860;51.710;8.736;2024-01-06T21:45:11;3.30;99.90
54960;DHT22;40860;51.710;8.736;2024-01-06T21:49:14;3.20;99.90
54960;DHT22;40860;51.710;8.736;2024-01-06T21:53:17;3.10;99.90
54960;DHT22;40860;51.710;8.736;2024-01-06T21:57:21;3.00;99.90
54960;DHT22;40860;51.710;8.736;2024-01-06T22:01:24;3.00;99.90
54960;DHT22;40860;51.710;8.736;2024-01-06T22:05:27;2.90;99.90
54960;DHT22;40860;51.710;8.736;2024-01-06T22:09:30;2.70;99.90
54960;DHT22;40860;51.710;8.736;2024-01-06T22:13:34;2.60;99.90
54960;DHT22;40860;51.710;8.736;2024-01-06T22:17:37;2.50;99.90
54960;DHT22;40860;51.710;8.736;2024-01-06T22:21:41;2.50;99.90
54960;DHT22;40860;51.710;8.736;2024-01-06T22:25:49;2.30;99.90
54960;DHT22;40860;51.710;8.736;2024-01-06T22:29:54;2.30;99.90
54960;DHT22;40860;51.710;8.736;2024-01-06T22:33:57;2.30;99.90
54960;DHT22;40860;51.710;8.736;2024-01-06T22:38:00;2.30;99.90
54960;DHT22;40860;51.710;8.736;2024-01-06T22:42:03;2.20;99.90
54960;DHT22;40860;51.710;8.736;2024-01-06T22:46:08;2.20;99.90
54960;DHT22;40860;51.710;8.736;2024-01-06T22:50:11;2.10;99.90
54960;DHT22;40860;51.710;8.736;2024-01-06T22:54:13;2.20;99.90
54960;DHT22;40860;51.710;8.736;2024-01-06T22:58:16;2.20;99.90
54960;DHT22;40860;51.710;8.736;2024-01-06T23:02:21;2.30;99.90
54960;DHT22;40860;51.710;8.736;2024-01-06T23:06:24;2.30;99.90
54960;DHT22;40860;51.710;8.736;2024-01-06T23:10:27;2.40;99.90
54960;DHT22;40860;51.710;8.736;2024-01-06T23:14:30;2.40;99.90
54960;DHT22;40860;51.710;8.736;2024-01-06T23:18:34;2.40;99.90
54960;DHT22;40860;51.710;8.736;2024-01-06T23:22:38;2.40;99.90
54960;DHT22;40860;51.710;8.736;2024-01-06T23:26:41;2.40;99.90
54960;DHT22;40860;51.710;8.736;2024-01-06T23:30:44;2.30;99.90
54960;DHT22;40860;51.710;8.736;2024-01-06T23:34:48;2.30;99.90
54960;DHT22;40860;51.710;8.736;2024-01-06T23:38:51;2.30;99.90
54960;DHT22;40860;51.710;8.736;2024-01-06T23:42:54;2.20;99.90
54960;DHT22;40860;51.710;8.736;2024-01-06T23:46:57;2.20;99.90
54960;DHT22;40860;51.710;8.736;2024-01-06T23:51:01;2.20;99.90
54960;DHT22;40860;51.710;8.736;2024-01-06T23:55:04;2.20;99.90
54960;DHT22;40860;51.710;8.736;2024-01-06T23:59:07;2.20;99.90
